sensor_id;sensor_type;location;lat;lon;timestamp;P1;durP1;ratioP1;P2;durP2;ratioP2
19877;SDS011;10101;52.204;9.910;2022-09-21T00:01:22;4.17;;;2.23;;
19877;SDS011;10101;52.204;9.910;2022-09-21T00:03:51;4.63;;;1.80;;
19877;SDS011;10101;52.204;9.910;2022-09-21T00:06:20;2.10;;;1.70;;
19877;SDS011;10101;52.204;9.910;2022-09-21T00:08:48;4.77;;;1.80;;
19877;SDS011;10101;52.204;9.910;2022-09-21T00:11:16;3.17;;;1.67;;
19877;SDS011;10101;52.204;9.910;2022-09-21T00:13:45;4.73;;;1.70;;
19877;SDS011;10101;52.204;9.910;2022-09-21T00:16:12;3.23;;;1.90;;
19877;SDS011;10101;52.204;9.910;2022-09-21T00:18:40;4.43;;;2.00;;
19877;SDS011;10101;52.204;9.910;2022-09-21T00:21:08;3.73;;;1.97;;
19877;SDS011;10101;52.204;9.910;2022-09-21T00:23:38;4.73;;;2.00;;
19877;SDS011;10101;52.204;9.910;2022-09-21T00:26:05;4.43;;;2.10;;
19877;SDS011;10101;52.204;9.910;2022-09-21T00:28:33;2.17;;;1.60;;
19877;SDS011;10101;52.204;9.910;2022-09-21T00:31:01;5.87;;;1.83;;
19877;SDS011;10101;52.204;9.910;2022-09-21T00:33:28;4.03;;;2.17;;
19877;SDS011;10101;52.204;9.910;2022-09-21T00:35:55;6.43;;;2.47;;
19877;SDS011;10101;52.204;9.910;2022-09-21T00:38:26;3.70;;;2.10;;
19877;SDS011;10101;52.204;9.910;2022-09-21T00:40:54;2.90;;;1.93;;
19877;SDS011;10101;52.204;9.910;2022-09-21T00:43:21;3.33;;;2.07;;
19877;SDS011;10101;52.204;9.910;2022-09-21T00:45:48;6.43;;;2.13;;
19877;SDS011;10101;52.204;9.910;2022-09-21T00:48:16;5.10;;;2.30;;
19877;SDS011;10101;52.204;9.910;2022-09-21T00:50:45;4.13;;;2.30;;
19877;SDS011;10101;52.204;9.910;2022-09-21T00:53:17;2.70;;;2.20;;
19877;SDS011;10101;52.204;9.910;2022-09-21T00:55:45;7.70;;;2.23;;
19877;SDS011;10101;52.204;9.910;2022-09-21T00:58:18;3.50;;;2.37;;
19877;SDS011;10101;52.204;9.910;2022-09-21T01:00:50;4.10;;;2.60;;
19877;SDS011;10101;52.204;9.910;2022-09-21T01:03:17;7.17;;;2.40;;
19877;SDS011;10101;52.204;9.910;2022-09-21T01:05:44;4.43;;;2.37;;
19877;SDS011;10101;52.204;9.910;2022-09-21T01:08:10;5.33;;;2.10;;
19877;SDS011;10101;52.204;9.910;2022-09-21T01:10:45;3.97;;;2.20;;
19877;SDS011;10101;52.204;9.910;2022-09-21T01:13:24;3.80;;;2.70;;
19877;SDS011;10101;52.204;9.910;2022-09-21T01:16:00;3.47;;;1.80;;
19877;SDS011;10101;52.204;9.910;2022-09-21T01:18:34;6.97;;;2.30;;
19877;SDS011;10101;52.204;9.910;2022-09-21T01:21:15;5.50;;;2.60;;
19877;SDS011;10101;52.204;9.910;2022-09-21T01:23:58;3.03;;;2.10;;
19877;SDS011;10101;52.204;9.910;2022-09-21T01:26:36;3.07;;;2.47;;
19877;SDS011;10101;52.204;9.910;2022-09-21T01:29:21;4.60;;;2.60;;
19877;SDS011;10101;52.204;9.910;2022-09-21T01:31:53;5.47;;;2.37;;
19877;SDS011;10101;52.204;9.910;2022-09-21T01:34:27;6.73;;;2.57;;
19877;SDS011;10101;52.204;9.910;2022-09-21T01:36:59;7.17;;;3.63;;
19877;SDS011;10101;52.204;9.910;2022-09-21T01:39:29;5.83;;;2.50;;
19877;SDS011;10101;52.204;9.910;2022-09-21T01:41:58;5.47;;;2.40;;
19877;SDS011;10101;52.204;9.910;2022-09-21T01:44:30;4.37;;;2.30;;
19877;SDS011;10101;52.204;9.910;2022-09-21T01:46:59;2.53;;;2.33;;
19877;SDS011;10101;52.204;9.910;2022-09-21T01:49:29;7.37;;;3.10;;
19877;SDS011;10101;52.204;9.910;2022-09-21T01:52:01;5.43;;;2.80;;
19877;SDS011;10101;52.204;9.910;2022-09-21T01:54:33;4.23;;;2.87;;
19877;SDS011;10101;52.204;9.910;2022-09-21T01:57:06;6.47;;;2.93;;
19877;SDS011;10101;52.204;9.910;2022-09-21T01:59:39;6.20;;;3.00;;
19877;SDS011;10101;52.204;9.910;2022-09-21T02:02:14;5.23;;;3.10;;
19877;SDS011;10101;52.204;9.910;2022-09-21T02:04:43;5.73;;;3.20;;
19877;SDS011;10101;52.204;9.910;2022-09-21T02:07:10;5.63;;;2.73;;
19877;SDS011;10101;52.204;9.910;2022-09-21T02:09:37;5.33;;;3.00;;
19877;SDS011;10101;52.204;9.910;2022-09-21T02:12:04;5.20;;;3.20;;
19877;SDS011;10101;52.204;9.910;2022-09-21T02:14:31;4.67;;;3.30;;
19877;SDS011;10101;52.204;9.910;2022-09-21T02:17:08;5.73;;;3.37;;
19877;SDS011;10101;52.204;9.910;2022-09-21T02:19:49;4.63;;;3.20;;
19877;SDS011;10101;52.204;9.910;2022-09-21T02:22:25;4.27;;;3.17;;
19877;SDS011;10101;52.204;9.910;2022-09-21T02:25:01;6.00;;;3.40;;
19877;SDS011;10101;52.204;9.910;2022-09-21T02:27:33;4.90;;;3.40;;
19877;SDS011;10101;52.204;9.910;2022-09-21T02:30:09;5.57;;;3.63;;
19877;SDS011;10101;52.204;9.910;2022-09-21T02:32:42;6.20;;;3.70;;
19877;SDS011;10101;52.204;9.910;2022-09-21T02:35:24;3.57;;;3.07;;
19877;SDS011;10101;52.204;9.910;2022-09-21T02:38:00;5.17;;;3.70;;
19877;SDS011;10101;52.204;9.910;2022-09-21T02:40:34;6.63;;;3.70;;
19877;SDS011;10101;52.204;9.910;2022-09-21T02:43:06;5.37;;;4.10;;
19877;SDS011;10101;52.204;9.910;2022-09-21T02:45:37;6.97;;;3.97;;
19877;SDS011;10101;52.204;9.910;2022-09-21T02:48:11;5.77;;;3.53;;
19877;SDS011;10101;52.204;9.910;2022-09-21T02:50:43;5.13;;;3.30;;
19877;SDS011;10101;52.204;9.910;2022-09-21T02:53:12;6.50;;;3.10;;
19877;SDS011;10101;52.204;9.910;2022-09-21T02:55:43;5.00;;;3.40;;
19877;SDS011;10101;52.204;9.910;2022-09-21T02:58:11;5.67;;;3.33;;
19877;SDS011;10101;52.204;9.910;2022-09-21T03:00:41;6.60;;;3.87;;
19877;SDS011;10101;52.204;9.910;2022-09-21T03:03:16;6.33;;;3.40;;
19877;SDS011;10101;52.204;9.910;2022-09-21T03:05:45;4.70;;;3.40;;
19877;SDS011;10101;52.204;9.910;2022-09-21T03:08:13;4.03;;;3.07;;
19877;SDS011;10101;52.204;9.910;2022-09-21T03:10:40;7.60;;;3.53;;
19877;SDS011;10101;52.204;9.910;2022-09-21T03:13:07;6.43;;;3.40;;
19877;SDS011;10101;52.204;9.910;2022-09-21T03:15:35;4.93;;;3.50;;
19877;SDS011;10101;52.204;9.910;2022-09-21T03:18:02;6.27;;;3.53;;
19877;SDS011;10101;52.204;9.910;2022-09-21T03:20:30;4.70;;;3.10;;
19877;SDS011;10101;52.204;9.910;2022-09-21T03:22:58;10.17;;;3.27;;
19877;SDS011;10101;52.204;9.910;2022-09-21T03:25:25;4.13;;;3.10;;
19877;SDS011;10101;52.204;9.910;2022-09-21T03:27:52;3.57;;;2.70;;
19877;SDS011;10101;52.204;9.910;2022-09-21T03:30:19;3.50;;;2.67;;
19877;SDS011;10101;52.204;9.910;2022-09-21T03:32:47;5.77;;;2.50;;
19877;SDS011;10101;52.204;9.910;2022-09-21T03:35:14;4.60;;;2.67;;
19877;SDS011;10101;52.204;9.910;2022-09-21T03:37:43;3.97;;;2.63;;
19877;SDS011;10101;52.204;9.910;2022-09-21T03:40:11;2.50;;;2.07;;
19877;SDS011;10101;52.204;9.910;2022-09-21T03:42:38;3.30;;;2.30;;
19877;SDS011;10101;52.204;9.910;2022-09-21T03:45:05;3.53;;;2.30;;
19877;SDS011;10101;52.204;9.910;2022-09-21T03:47:34;4.93;;;2.13;;
19877;SDS011;10101;52.204;9.910;2022-09-21T03:50:00;4.07;;;2.27;;
19877;SDS011;10101;52.204;9.910;2022-09-21T03:52:27;5.87;;;3.07;;
19877;SDS011;10101;52.204;9.910;2022-09-21T03:54:56;6.43;;;3.20;;
19877;SDS011;10101;52.204;9.910;2022-09-21T03:57:23;5.40;;;3.23;;
19877;SDS011;10101;52.204;9.910;2022-09-21T03:59:50;4.73;;;3.20;;
19877;SDS011;10101;52.204;9.910;2022-09-21T04:02:18;5.17;;;3.33;;
19877;SDS011;10101;52.204;9.910;2022-09-21T04:04:44;4.53;;;3.20;;
19877;SDS011;10101;52.204;9.910;2022-09-21T04:07:11;6.03;;;3.77;;
19877;SDS011;10101;52.204;9.910;2022-09-21T04:09:39;6.80;;;3.40;;
19877;SDS011;10101;52.204;9.910;2022-09-21T04:12:07;5.80;;;3.73;;
19877;SDS011;10101;52.204;9.910;2022-09-21T04:14:34;5.93;;;3.73;;
19877;SDS011;10101;52.204;9.910;2022-09-21T04:17:00;7.10;;;3.80;;
19877;SDS011;10101;52.204;9.910;2022-09-21T04:19:27;5.00;;;3.60;;
19877;SDS011;10101;52.204;9.910;2022-09-21T04:21:54;6.27;;;3.67;;
19877;SDS011;10101;52.204;9.910;2022-09-21T04:24:21;5.30;;;3.73;;
19877;SDS011;10101;52.204;9.910;2022-09-21T04:26:48;4.57;;;3.33;;
19877;SDS011;10101;52.204;9.910;2022-09-21T04:29:16;7.27;;;3.63;;
19877;SDS011;10101;52.204;9.910;2022-09-21T04:31:42;4.00;;;2.80;;
19877;SDS011;10101;52.204;9.910;2022-09-21T04:34:11;7.83;;;3.87;;
19877;SDS011;10101;52.204;9.910;2022-09-21T04:36:38;4.40;;;3.27;;
19877;SDS011;10101;52.204;9.910;2022-09-21T04:39:05;7.77;;;3.60;;
19877;SDS011;10101;52.204;9.910;2022-09-21T04:41:32;4.83;;;3.20;;
19877;SDS011;10101;52.204;9.910;2022-09-21T04:43:59;4.43;;;3.20;;
19877;SDS011;10101;52.204;9.910;2022-09-21T04:46:27;5.00;;;3.53;;
19877;SDS011;10101;52.204;9.910;2022-09-21T04:48:54;4.83;;;3.37;;
19877;SDS011;10101;52.204;9.910;2022-09-21T04:51:21;8.57;;;3.47;;
19877;SDS011;10101;52.204;9.910;2022-09-21T04:53:48;4.70;;;3.40;;
19877;SDS011;10101;52.204;9.910;2022-09-21T04:56:15;5.97;;;3.67;;
19877;SDS011;10101;52.204;9.910;2022-09-21T04:58:42;7.33;;;3.60;;
19877;SDS011;10101;52.204;9.910;2022-09-21T05:01:09;6.00;;;3.47;;
19877;SDS011;10101;52.204;9.910;2022-09-21T05:03:38;6.97;;;3.50;;
19877;SDS011;10101;52.204;9.910;2022-09-21T05:06:05;5.67;;;3.63;;
19877;SDS011;10101;52.204;9.910;2022-09-21T05:08:31;5.10;;;3.37;;
19877;SDS011;10101;52.204;9.910;2022-09-21T05:11:17;4.70;;;3.27;;
19877;SDS011;10101;52.204;9.910;2022-09-21T05:13:44;6.20;;;3.63;;
19877;SDS011;10101;52.204;9.910;2022-09-21T05:16:12;5.03;;;3.23;;
19877;SDS011;10101;52.204;9.910;2022-09-21T05:18:40;11.40;;;3.00;;
19877;SDS011;10101;52.204;9.910;2022-09-21T05:21:08;5.43;;;2.83;;
19877;SDS011;10101;52.204;9.910;2022-09-21T05:23:37;10.10;;;2.93;;
19877;SDS011;10101;52.204;9.910;2022-09-21T05:26:04;6.73;;;2.80;;
19877;SDS011;10101;52.204;9.910;2022-09-21T05:28:31;3.83;;;2.90;;
19877;SDS011;10101;52.204;9.910;2022-09-21T05:31:03;3.47;;;2.60;;
19877;SDS011;10101;52.204;9.910;2022-09-21T05:33:41;2.73;;;2.37;;
19877;SDS011;10101;52.204;9.910;2022-09-21T05:36:25;4.00;;;3.03;;
19877;SDS011;10101;52.204;9.910;2022-09-21T05:39:01;4.13;;;2.60;;
19877;SDS011;10101;52.204;9.910;2022-09-21T05:41:28;3.67;;;2.50;;
19877;SDS011;10101;52.204;9.910;2022-09-21T05:43:56;3.20;;;2.60;;
19877;SDS011;10101;52.204;9.910;2022-09-21T05:46:26;9.60;;;4.50;;
19877;SDS011;10101;52.204;9.910;2022-09-21T05:49:03;17.50;;;11.93;;
19877;SDS011;10101;52.204;9.910;2022-09-21T05:51:38;14.10;;;12.70;;
19877;SDS011;10101;52.204;9.910;2022-09-21T05:54:13;4.43;;;3.97;;
19877;SDS011;10101;52.204;9.910;2022-09-21T05:56:47;3.97;;;3.10;;
19877;SDS011;10101;52.204;9.910;2022-09-21T05:59:24;4.07;;;3.07;;
19877;SDS011;10101;52.204;9.910;2022-09-21T06:02:05;5.73;;;3.00;;
19877;SDS011;10101;52.204;9.910;2022-09-21T06:04:44;3.60;;;2.77;;
19877;SDS011;10101;52.204;9.910;2022-09-21T06:07:13;3.30;;;2.73;;
19877;SDS011;10101;52.204;9.910;2022-09-21T06:09:40;3.03;;;2.50;;
19877;SDS011;10101;52.204;9.910;2022-09-21T06:12:07;3.27;;;2.53;;
19877;SDS011;10101;52.204;9.910;2022-09-21T06:14:35;3.10;;;2.60;;
19877;SDS011;10101;52.204;9.910;2022-09-21T06:17:02;3.63;;;2.77;;
19877;SDS011;10101;52.204;9.910;2022-09-21T06:19:29;4.07;;;2.73;;
19877;SDS011;10101;52.204;9.910;2022-09-21T06:21:57;3.67;;;2.80;;
19877;SDS011;10101;52.204;9.910;2022-09-21T06:24:24;5.43;;;2.90;;
19877;SDS011;10101;52.204;9.910;2022-09-21T06:26:50;3.13;;;2.60;;
19877;SDS011;10101;52.204;9.910;2022-09-21T06:29:17;4.07;;;2.60;;
19877;SDS011;10101;52.204;9.910;2022-09-21T06:31:47;3.47;;;2.70;;
19877;SDS011;10101;52.204;9.910;2022-09-21T06:34:14;4.67;;;3.03;;
19877;SDS011;10101;52.204;9.910;2022-09-21T06:36:41;4.10;;;3.60;;
19877;SDS011;10101;52.204;9.910;2022-09-21T06:39:09;4.30;;;3.20;;
19877;SDS011;10101;52.204;9.910;2022-09-21T06:41:36;5.10;;;3.27;;
19877;SDS011;10101;52.204;9.910;2022-09-21T06:44:03;4.57;;;3.70;;
19877;SDS011;10101;52.204;9.910;2022-09-21T06:46:30;6.13;;;3.80;;
19877;SDS011;10101;52.204;9.910;2022-09-21T06:48:57;7.93;;;4.13;;
19877;SDS011;10101;52.204;9.910;2022-09-21T06:51:23;6.87;;;4.07;;
19877;SDS011;10101;52.204;9.910;2022-09-21T06:53:53;6.83;;;4.30;;
19877;SDS011;10101;52.204;9.910;2022-09-21T06:56:22;5.83;;;3.83;;
19877;SDS011;10101;52.204;9.910;2022-09-21T06:58:49;7.60;;;4.43;;
19877;SDS011;10101;52.204;9.910;2022-09-21T07:01:16;7.30;;;4.70;;
19877;SDS011;10101;52.204;9.910;2022-09-21T07:03:43;6.60;;;4.10;;
19877;SDS011;10101;52.204;9.910;2022-09-21T07:06:13;6.93;;;4.73;;
19877;SDS011;10101;52.204;9.910;2022-09-21T07:08:41;7.67;;;4.43;;
19877;SDS011;10101;52.204;9.910;2022-09-21T07:11:09;5.07;;;4.00;;
19877;SDS011;10101;52.204;9.910;2022-09-21T07:13:38;7.83;;;4.60;;
19877;SDS011;10101;52.204;9.910;2022-09-21T07:16:06;8.80;;;4.13;;
19877;SDS011;10101;52.204;9.910;2022-09-21T07:18:34;9.33;;;5.47;;
19877;SDS011;10101;52.204;9.910;2022-09-21T07:21:01;7.83;;;4.50;;
19877;SDS011;10101;52.204;9.910;2022-09-21T07:23:28;6.57;;;4.37;;
19877;SDS011;10101;52.204;9.910;2022-09-21T07:25:59;7.43;;;4.83;;
19877;SDS011;10101;52.204;9.910;2022-09-21T07:28:26;6.77;;;4.40;;
19877;SDS011;10101;52.204;9.910;2022-09-21T07:30:55;9.10;;;4.80;;
19877;SDS011;10101;52.204;9.910;2022-09-21T07:33:22;7.27;;;4.93;;
19877;SDS011;10101;52.204;9.910;2022-09-21T07:35:49;6.20;;;4.60;;
19877;SDS011;10101;52.204;9.910;2022-09-21T07:38:17;11.60;;;5.27;;
19877;SDS011;10101;52.204;9.910;2022-09-21T07:40:44;7.23;;;5.00;;
19877;SDS011;10101;52.204;9.910;2022-09-21T07:43:11;7.80;;;4.07;;
19877;SDS011;10101;52.204;9.910;2022-09-21T07:45:37;7.07;;;4.70;;
19877;SDS011;10101;52.204;9.910;2022-09-21T07:48:06;5.40;;;4.10;;
19877;SDS011;10101;52.204;9.910;2022-09-21T07:50:34;7.23;;;4.53;;
19877;SDS011;10101;52.204;9.910;2022-09-21T07:53:01;7.47;;;4.70;;
19877;SDS011;10101;52.204;9.910;2022-09-21T07:55:28;7.27;;;4.63;;
19877;SDS011;10101;52.204;9.910;2022-09-21T07:57:56;6.00;;;4.33;;
19877;SDS011;10101;52.204;9.910;2022-09-21T08:00:40;6.90;;;4.73;;
19877;SDS011;10101;52.204;9.910;2022-09-21T08:03:08;6.70;;;4.37;;
19877;SDS011;10101;52.204;9.910;2022-09-21T08:05:35;9.13;;;4.67;;
19877;SDS011;10101;52.204;9.910;2022-09-21T08:08:02;6.37;;;4.17;;
19877;SDS011;10101;52.204;9.910;2022-09-21T08:10:29;5.63;;;4.27;;
19877;SDS011;10101;52.204;9.910;2022-09-21T08:12:56;9.90;;;4.00;;
19877;SDS011;10101;52.204;9.910;2022-09-21T08:15:23;5.90;;;3.80;;
19877;SDS011;10101;52.204;9.910;2022-09-21T08:17:51;6.47;;;3.60;;
19877;SDS011;10101;52.204;9.910;2022-09-21T08:20:19;11.00;;;4.20;;
19877;SDS011;10101;52.204;9.910;2022-09-21T08:22:47;5.70;;;4.27;;
19877;SDS011;10101;52.204;9.910;2022-09-21T08:25:14;8.73;;;4.03;;
19877;SDS011;10101;52.204;9.910;2022-09-21T08:27:41;8.10;;;3.63;;
19877;SDS011;10101;52.204;9.910;2022-09-21T08:30:08;9.40;;;3.77;;
19877;SDS011;10101;52.204;9.910;2022-09-21T08:32:39;7.87;;;3.70;;
19877;SDS011;10101;52.204;9.910;2022-09-21T08:35:06;9.13;;;3.30;;
19877;SDS011;10101;52.204;9.910;2022-09-21T08:37:35;8.20;;;3.50;;
19877;SDS011;10101;52.204;9.910;2022-09-21T08:40:02;5.00;;;3.40;;
19877;SDS011;10101;52.204;9.910;2022-09-21T08:42:41;7.50;;;3.37;;
19877;SDS011;10101;52.204;9.910;2022-09-21T08:45:16;6.00;;;3.00;;
19877;SDS011;10101;52.204;9.910;2022-09-21T08:47:46;8.83;;;3.57;;
19877;SDS011;10101;52.204;9.910;2022-09-21T08:50:25;9.70;;;3.80;;
19877;SDS011;10101;52.204;9.910;2022-09-21T08:53:02;7.37;;;3.63;;
19877;SDS011;10101;52.204;9.910;2022-09-21T08:55:31;8.83;;;3.47;;
19877;SDS011;10101;52.204;9.910;2022-09-21T08:57:58;8.67;;;3.17;;
19877;SDS011;10101;52.204;9.910;2022-09-21T09:00:25;8.07;;;3.37;;
19877;SDS011;10101;52.204;9.910;2022-09-21T09:03:07;11.83;;;3.90;;
19877;SDS011;10101;52.204;9.910;2022-09-21T09:05:47;7.93;;;3.87;;
19877;SDS011;10101;52.204;9.910;2022-09-21T09:08:26;8.60;;;3.50;;
19877;SDS011;10101;52.204;9.910;2022-09-21T09:11:09;8.37;;;3.80;;
19877;SDS011;10101;52.204;9.910;2022-09-21T09:13:59;6.57;;;3.47;;
19877;SDS011;10101;52.204;9.910;2022-09-21T09:16:39;10.97;;;3.63;;
19877;SDS011;10101;52.204;9.910;2022-09-21T09:19:15;8.70;;;4.10;;
19877;SDS011;10101;52.204;9.910;2022-09-21T09:21:47;9.50;;;3.90;;
19877;SDS011;10101;52.204;9.910;2022-09-21T09:24:16;9.53;;;4.40;;
19877;SDS011;10101;52.204;9.910;2022-09-21T09:26:50;6.30;;;3.70;;
19877;SDS011;10101;52.204;9.910;2022-09-21T09:29:21;6.87;;;3.60;;
19877;SDS011;10101;52.204;9.910;2022-09-21T09:31:54;6.20;;;2.87;;
19877;SDS011;10101;52.204;9.910;2022-09-21T09:34:23;5.70;;;2.00;;
19877;SDS011;10101;52.204;9.910;2022-09-21T09:36:56;5.63;;;1.70;;
19877;SDS011;10101;52.204;9.910;2022-09-21T09:39:26;6.80;;;2.10;;
19877;SDS011;10101;52.204;9.910;2022-09-21T09:41:59;7.27;;;2.33;;
19877;SDS011;10101;52.204;9.910;2022-09-21T09:44:39;9.40;;;2.33;;
19877;SDS011;10101;52.204;9.910;2022-09-21T09:47:17;8.50;;;2.30;;
19877;SDS011;10101;52.204;9.910;2022-09-21T09:49:56;5.40;;;2.10;;
19877;SDS011;10101;52.204;9.910;2022-09-21T09:52:29;5.50;;;2.20;;
19877;SDS011;10101;52.204;9.910;2022-09-21T09:54:58;6.70;;;2.47;;
19877;SDS011;10101;52.204;9.910;2022-09-21T09:57:26;5.43;;;1.90;;
19877;SDS011;10101;52.204;9.910;2022-09-21T09:59:55;7.83;;;2.10;;
19877;SDS011;10101;52.204;9.910;2022-09-21T10:02:27;8.43;;;2.10;;
19877;SDS011;10101;52.204;9.910;2022-09-21T10:04:55;4.13;;;2.10;;
19877;SDS011;10101;52.204;9.910;2022-09-21T10:07:34;7.03;;;2.30;;
19877;SDS011;10101;52.204;9.910;2022-09-21T10:10:07;7.37;;;1.90;;
19877;SDS011;10101;52.204;9.910;2022-09-21T10:12:49;6.10;;;2.17;;
19877;SDS011;10101;52.204;9.910;2022-09-21T10:15:17;5.57;;;1.47;;
19877;SDS011;10101;52.204;9.910;2022-09-21T10:17:45;7.50;;;1.80;;
19877;SDS011;10101;52.204;9.910;2022-09-21T10:20:14;7.73;;;1.30;;
19877;SDS011;10101;52.204;9.910;2022-09-21T10:22:43;3.87;;;1.30;;
19877;SDS011;10101;52.204;9.910;2022-09-21T10:25:15;3.80;;;1.40;;
19877;SDS011;10101;52.204;9.910;2022-09-21T10:27:45;6.70;;;1.60;;
19877;SDS011;10101;52.204;9.910;2022-09-21T10:30:34;5.50;;;1.60;;
19877;SDS011;10101;52.204;9.910;2022-09-21T10:33:02;5.47;;;1.60;;
19877;SDS011;10101;52.204;9.910;2022-09-21T10:35:47;2.00;;;1.17;;
19877;SDS011;10101;52.204;9.910;2022-09-21T10:38:18;2.83;;;1.07;;
19877;SDS011;10101;52.204;9.910;2022-09-21T10:40:47;6.17;;;1.50;;
19877;SDS011;10101;52.204;9.910;2022-09-21T10:43:22;4.10;;;1.10;;
19877;SDS011;10101;52.204;9.910;2022-09-21T10:45:51;9.20;;;1.77;;
19877;SDS011;10101;52.204;9.910;2022-09-21T10:48:20;4.13;;;1.47;;
19877;SDS011;10101;52.204;9.910;2022-09-21T10:50:48;3.30;;;0.97;;
19877;SDS011;10101;52.204;9.910;2022-09-21T10:53:18;2.13;;;1.00;;
19877;SDS011;10101;52.204;9.910;2022-09-21T10:55:54;4.77;;;1.30;;
19877;SDS011;10101;52.204;9.910;2022-09-21T10:58:23;2.10;;;1.40;;
19877;SDS011;10101;52.204;9.910;2022-09-21T11:00:51;9.50;;;1.40;;
19877;SDS011;10101;52.204;9.910;2022-09-21T11:03:29;2.63;;;1.00;;
19877;SDS011;10101;52.204;9.910;2022-09-21T11:06:07;3.77;;;0.97;;
19877;SDS011;10101;52.204;9.910;2022-09-21T11:08:40;4.50;;;1.00;;
19877;SDS011;10101;52.204;9.910;2022-09-21T11:11:19;3.53;;;0.90;;
19877;SDS011;10101;52.204;9.910;2022-09-21T11:13:57;3.10;;;1.00;;
19877;SDS011;10101;52.204;9.910;2022-09-21T11:16:32;8.03;;;1.10;;
19877;SDS011;10101;52.204;9.910;2022-09-21T11:19:06;2.20;;;0.80;;
19877;SDS011;10101;52.204;9.910;2022-09-21T11:21:43;2.50;;;0.80;;
19877;SDS011;10101;52.204;9.910;2022-09-21T11:24:19;5.97;;;1.00;;
19877;SDS011;10101;52.204;9.910;2022-09-21T11:26:54;5.33;;;0.90;;
19877;SDS011;10101;52.204;9.910;2022-09-21T11:29:29;5.00;;;1.10;;
19877;SDS011;10101;52.204;9.910;2022-09-21T11:32:12;3.10;;;1.00;;
19877;SDS011;10101;52.204;9.910;2022-09-21T11:35:06;5.03;;;1.20;;
19877;SDS011;10101;52.204;9.910;2022-09-21T11:37:50;6.53;;;1.20;;
19877;SDS011;10101;52.204;9.910;2022-09-21T11:40:31;4.00;;;1.13;;
19877;SDS011;10101;52.204;9.910;2022-09-21T11:43:11;4.83;;;0.97;;
19877;SDS011;10101;52.204;9.910;2022-09-21T11:45:54;3.30;;;0.80;;
19877;SDS011;10101;52.204;9.910;2022-09-21T11:48:33;4.00;;;0.80;;
19877;SDS011;10101;52.204;9.910;2022-09-21T11:51:15;5.07;;;0.90;;
19877;SDS011;10101;52.204;9.910;2022-09-21T11:53:59;4.60;;;1.03;;
19877;SDS011;10101;52.204;9.910;2022-09-21T11:56:42;2.50;;;0.67;;
19877;SDS011;10101;52.204;9.910;2022-09-21T11:59:21;2.33;;;0.87;;
19877;SDS011;10101;52.204;9.910;2022-09-21T12:02:00;4.67;;;0.70;;
19877;SDS011;10101;52.204;9.910;2022-09-21T12:04:46;5.70;;;0.97;;
19877;SDS011;10101;52.204;9.910;2022-09-21T12:07:30;4.73;;;0.97;;
19877;SDS011;10101;52.204;9.910;2022-09-21T12:10:10;3.73;;;1.00;;
19877;SDS011;10101;52.204;9.910;2022-09-21T12:12:45;8.40;;;1.33;;
19877;SDS011;10101;52.204;9.910;2022-09-21T12:15:20;5.03;;;0.70;;
19877;SDS011;10101;52.204;9.910;2022-09-21T12:17:53;6.80;;;0.83;;
19877;SDS011;10101;52.204;9.910;2022-09-21T12:20:28;2.63;;;0.80;;
19877;SDS011;10101;52.204;9.910;2022-09-21T12:23:03;3.47;;;1.17;;
19877;SDS011;10101;52.204;9.910;2022-09-21T12:25:34;5.40;;;1.03;;
19877;SDS011;10101;52.204;9.910;2022-09-21T12:28:06;2.10;;;0.77;;
19877;SDS011;10101;52.204;9.910;2022-09-21T12:30:41;2.17;;;0.77;;
19877;SDS011;10101;52.204;9.910;2022-09-21T12:33:14;2.90;;;0.70;;
19877;SDS011;10101;52.204;9.910;2022-09-21T12:35:47;4.17;;;0.90;;
19877;SDS011;10101;52.204;9.910;2022-09-21T12:38:20;2.87;;;1.10;;
19877;SDS011;10101;52.204;9.910;2022-09-21T12:40:51;4.90;;;1.37;;
19877;SDS011;10101;52.204;9.910;2022-09-21T12:43:27;4.90;;;1.20;;
19877;SDS011;10101;52.204;9.910;2022-09-21T12:46:04;2.77;;;0.80;;
19877;SDS011;10101;52.204;9.910;2022-09-21T12:48:34;2.43;;;0.70;;
19877;SDS011;10101;52.204;9.910;2022-09-21T12:51:05;3.33;;;0.70;;
19877;SDS011;10101;52.204;9.910;2022-09-21T12:53:37;4.70;;;0.83;;
19877;SDS011;10101;52.204;9.910;2022-09-21T12:56:14;4.23;;;0.67;;
19877;SDS011;10101;52.204;9.910;2022-09-21T12:58:58;4.37;;;0.77;;
19877;SDS011;10101;52.204;9.910;2022-09-21T13:01:36;5.40;;;0.70;;
19877;SDS011;10101;52.204;9.910;2022-09-21T13:04:23;1.60;;;0.83;;
19877;SDS011;10101;52.204;9.910;2022-09-21T13:07:06;4.30;;;1.10;;
19877;SDS011;10101;52.204;9.910;2022-09-21T13:09:57;2.93;;;0.80;;
19877;SDS011;10101;52.204;9.910;2022-09-21T13:12:26;4.73;;;0.77;;
19877;SDS011;10101;52.204;9.910;2022-09-21T13:15:00;4.30;;;0.90;;
19877;SDS011;10101;52.204;9.910;2022-09-21T13:17:30;3.43;;;0.90;;
19877;SDS011;10101;52.204;9.910;2022-09-21T13:19:59;4.20;;;1.00;;
19877;SDS011;10101;52.204;9.910;2022-09-21T13:22:29;1.93;;;0.80;;
19877;SDS011;10101;52.204;9.910;2022-09-21T13:24:59;2.77;;;0.97;;
19877;SDS011;10101;52.204;9.910;2022-09-21T13:30:29;3.37;;;1.20;;
19877;SDS011;10101;52.204;9.910;2022-09-21T13:32:59;2.90;;;0.73;;
19877;SDS011;10101;52.204;9.910;2022-09-21T13:35:48;2.50;;;0.60;;
19877;SDS011;10101;52.204;9.910;2022-09-21T13:38:21;1.57;;;0.80;;
19877;SDS011;10101;52.204;9.910;2022-09-21T13:40:55;3.20;;;0.90;;
19877;SDS011;10101;52.204;9.910;2022-09-21T13:43:24;2.87;;;0.70;;
19877;SDS011;10101;52.204;9.910;2022-09-21T13:49:21;3.00;;;0.60;;
19877;SDS011;10101;52.204;9.910;2022-09-21T13:51:54;2.17;;;0.60;;
19877;SDS011;10101;52.204;9.910;2022-09-21T13:54:24;2.27;;;0.50;;
19877;SDS011;10101;52.204;9.910;2022-09-21T13:56:57;1.40;;;0.60;;
19877;SDS011;10101;52.204;9.910;2022-09-21T13:59:28;4.03;;;0.70;;
19877;SDS011;10101;52.204;9.910;2022-09-21T14:01:59;2.93;;;1.00;;
19877;SDS011;10101;52.204;9.910;2022-09-21T14:04:28;3.07;;;0.70;;
19877;SDS011;10101;52.204;9.910;2022-09-21T14:07:01;4.03;;;0.70;;
19877;SDS011;10101;52.204;9.910;2022-09-21T14:09:33;4.00;;;0.67;;
19877;SDS011;10101;52.204;9.910;2022-09-21T14:12:07;2.37;;;0.70;;
19877;SDS011;10101;52.204;9.910;2022-09-21T14:14:43;1.63;;;0.80;;
19877;SDS011;10101;52.204;9.910;2022-09-21T14:17:37;1.33;;;0.67;;
19877;SDS011;10101;52.204;9.910;2022-09-21T14:20:24;1.50;;;0.63;;
19877;SDS011;10101;52.204;9.910;2022-09-21T14:25:52;4.57;;;0.70;;
19877;SDS011;10101;52.204;9.910;2022-09-21T14:31:05;1.20;;;0.60;;
19877;SDS011;10101;52.204;9.910;2022-09-21T14:33:42;1.30;;;0.50;;
19877;SDS011;10101;52.204;9.910;2022-09-21T14:36:14;2.97;;;0.70;;
19877;SDS011;10101;52.204;9.910;2022-09-21T14:38:48;1.87;;;0.50;;
19877;SDS011;10101;52.204;9.910;2022-09-21T14:41:20;1.17;;;0.73;;
19877;SDS011;10101;52.204;9.910;2022-09-21T14:43:49;1.23;;;0.50;;
19877;SDS011;10101;52.204;9.910;2022-09-21T14:46:24;3.07;;;0.60;;
19877;SDS011;10101;52.204;9.910;2022-09-21T14:49:09;2.73;;;0.60;;
19877;SDS011;10101;52.204;9.910;2022-09-21T14:51:49;2.47;;;0.53;;
19877;SDS011;10101;52.204;9.910;2022-09-21T14:54:32;3.57;;;0.67;;
19877;SDS011;10101;52.204;9.910;2022-09-21T14:57:09;1.90;;;0.67;;
19877;SDS011;10101;52.204;9.910;2022-09-21T14:59:58;4.05;;;0.90;;
19877;SDS011;10101;52.204;9.910;2022-09-21T15:02:38;3.58;;;0.90;;
19877;SDS011;10101;52.204;9.910;2022-09-21T15:05:17;1.53;;;0.50;;
19877;SDS011;10101;52.204;9.910;2022-09-21T15:07:52;4.10;;;1.17;;
19877;SDS011;10101;52.204;9.910;2022-09-21T15:10:47;3.70;;;0.80;;
19877;SDS011;10101;52.204;9.910;2022-09-21T15:13:46;1.48;;;0.50;;
19877;SDS011;10101;52.204;9.910;2022-09-21T15:16:23;1.20;;;0.60;;
19877;SDS011;10101;52.204;9.910;2022-09-21T15:18:59;1.92;;;0.82;;
19877;SDS011;10101;52.204;9.910;2022-09-21T15:21:35;3.58;;;0.60;;
19877;SDS011;10101;52.204;9.910;2022-09-21T15:24:27;1.75;;;0.43;;
19877;SDS011;10101;52.204;9.910;2022-09-21T15:27:01;2.15;;;0.70;;
19877;SDS011;10101;52.204;9.910;2022-09-21T15:29:30;2.75;;;0.80;;